Time;durP1;ratioP1;P1;durP2;ratioP2;P2;SDS_P1;SDS_P2;PMS_P1;PMS_P2;Temp;Humidity;BMP_temperature;BMP_pressure;BME280_temperature;BME280_humidity;BME280_pressure;Samples;Min_cycle;Max_cycle;Signal;HPM_P1;HPM_P2
2022/10/26 00:00:08;;;;;;;4.72;2.05;;;;;;;9.41;100.00;99062.75;5017496;28;20231;-65
2022/10/26 00:02:40;;;;;;;4.78;2.65;;;;;;;9.21;100.00;99039.03;5019419;28;20033;-65
2022/10/26 00:05:06;;;;;;;2.38;1.75;;;;;;;9.22;100.00;99062.00;5018889;28;20042;-64
2022/10/26 00:07:31;;;;;;;3.97;1.92;;;;;;;9.11;100.00;99064.66;5018501;28;20548;-65
2022/10/26 00:09:57;;;;;;;4.20;3.33;;;;;;;8.98;100.00;99060.47;5014665;28;20112;-65
2022/10/26 00:12:23;;;;;;;124.75;117.22;;;;;;;8.86;100.00;99049.47;5018105;28;20041;-65
2022/10/26 00:14:49;;;;;;;22.02;19.00;;;;;;;8.81;100.00;99064.81;5018189;28;20473;-64
2022/10/26 00:17:14;;;;;;;43.45;40.53;;;;;;;8.72;100.00;99057.19;5017073;28;20043;-65
2022/10/26 00:19:40;;;;;;;5.00;4.50;;;;;;;8.58;100.00;99041.91;5014747;28;20051;-64
2022/10/26 00:22:06;;;;;;;2.70;2.25;;;;;;;8.61;100.00;99053.84;5013565;28;20045;-65
2022/10/26 00:24:31;;;;;;;4.72;3.10;;;;;;;8.52;100.00;99056.44;5017539;28;20523;-65
2022/10/26 00:26:57;;;;;;;5.43;3.47;;;;;;;8.35;100.00;99043.72;5022846;28;20044;-65
2022/10/26 00:29:22;;;;;;;2.65;2.30;;;;;;;8.44;100.00;99064.13;5020379;28;20087;-65
2022/10/26 00:31:48;;;;;;;3.13;2.28;;;;;;;8.41;100.00;99056.47;5019647;28;20076;-65
2022/10/26 00:34:13;;;;;;;2.72;2.40;;;;;;;8.25;100.00;99034.34;5022658;28;20037;-66
2022/10/26 00:36:39;;;;;;;2.88;2.15;;;;;;;8.19;100.00;99036.91;5053638;28;20045;-65
2022/10/26 00:39:05;;;;;;;4.88;2.45;;;;;;;8.15;100.00;99030.97;5019522;28;20547;-65
2022/10/26 00:41:32;;;;;;;4.57;2.53;;;;;;;8.33;100.00;99045.44;5017632;28;20045;-65
2022/10/26 00:43:59;;;;;;;4.07;3.05;;;;;;;8.26;100.00;99036.91;5029622;28;20044;-65
2022/10/26 00:46:36;;;;;;;2.75;2.55;;;;;;;8.33;100.00;99050.53;5017477;28;20117;-65
2022/10/26 00:49:13;;;;;;;2.58;2.38;;;;;;;8.26;100.00;99049.69;5018070;28;20052;-65
2022/10/26 00:51:47;;;;;;;2.90;2.10;;;;;;;8.15;100.00;99025.00;5021491;28;20072;-66
2022/10/26 00:54:19;;;;;;;4.70;2.50;;;;;;;8.25;100.00;99047.97;5021524;28;20037;-65
2022/10/26 00:56:49;;;;;;;2.35;1.90;;;;;;;8.27;100.00;99040.31;5021800;28;20037;-66
2022/10/26 00:59:16;;;;;;;3.15;2.00;;;;;;;8.06;100.00;99015.66;5020904;28;20116;-66
2022/10/26 01:01:47;;;;;;;3.22;2.17;;;;;;;8.20;100.00;99043.72;5018971;28;20115;-66
2022/10/26 01:04:14;;;;;;;2.00;1.90;;;;;;;8.22;100.00;99037.78;5017547;28;20040;-65
2022/10/26 01:06:41;;;;;;;3.67;2.60;;;;;;;8.09;100.00;99012.28;5049322;28;20041;-65
2022/10/26 01:09:09;;;;;;;6.20;5.57;;;;;;;8.23;100.00;99036.91;5020433;28;20464;-66
2022/10/26 01:11:34;;;;;;;2.38;2.13;;;;;;;8.22;100.00;99027.56;5018148;28;20037;-66
2022/10/26 01:14:03;;;;;;;2.67;2.47;;;;;;;8.23;100.00;99029.25;5018133;28;20052;-66
2022/10/26 01:16:56;;;;;;;2.72;2.05;;;;;;;8.19;100.00;99011.38;5022075;28;20068;-66
2022/10/26 01:19:22;;;;;;;9.32;8.45;;;;;;;8.31;100.00;99021.59;5021333;28;20494;-67
2022/10/26 01:22:16;;;;;;;4.55;2.40;;;;;;;8.28;100.00;99021.56;5020494;28;20159;-65
2022/10/26 01:24:48;;;;;;;2.20;2.03;;;;;;;8.22;100.00;99019.06;5021192;28;20041;-66
2022/10/26 01:27:27;;;;;;;3.00;1.90;;;;;;;8.22;100.00;99032.66;5020321;28;20133;-66
2022/10/26 01:30:17;;;;;;;2.70;2.50;;;;;;;8.24;100.00;99035.19;5019193;28;20045;-66
2022/10/26 01:32:58;;;;;;;6.30;5.75;;;;;;;8.26;100.00;99033.50;5013226;28;20041;-66
2022/10/26 01:35:29;;;;;;;1.92;1.83;;;;;;;8.28;100.00;99032.63;5021204;28;20047;-66
2022/10/26 01:38:01;;;;;;;3.38;1.85;;;;;;;8.16;100.00;99011.41;5019422;28;20117;-66
2022/10/26 01:40:48;;;;;;;6.50;3.60;;;;;;;8.18;100.00;99020.78;5049452;28;20168;-61
2022/10/26 01:43:15;;;;;;;3.45;2.33;;;;;;;7.99;100.00;98985.06;5016921;28;20298;-60
2022/10/26 01:45:46;;;;;;;4.13;2.15;;;;;;;8.05;100.00;99019.09;5021353;28;20108;-60
2022/10/26 01:48:16;;;;;;;6.75;2.70;;;;;;;8.01;100.00;99014.88;5020666;28;20406;-61
2022/10/26 01:50:43;;;;;;;45.95;42.78;;;;;;;7.94;100.00;99023.38;5019226;28;20038;-61
2022/10/26 01:53:12;;;;;;;3.40;2.60;;;;;;;7.93;100.00;99026.81;5019608;28;20382;-61
2022/10/26 01:55:48;;;;;;;3.88;2.35;;;;;;;7.89;100.00;99032.75;5020415;28;20923;-61
2022/10/26 01:58:28;;;;;;;3.83;2.40;;;;;;;7.77;100.00;98997.88;5020717;28;20045;-61
2022/10/26 02:01:24;;;;;;;3.28;2.63;;;;;;;7.89;100.00;99019.16;5035189;28;20041;-61
2022/10/26 02:03:55;;;;;;;4.22;2.33;;;;;;;7.91;100.00;99020.84;5018812;28;20095;-60
2022/10/26 02:06:32;;;;;;;2.63;2.13;;;;;;;7.82;100.00;99001.28;5020161;28;20041;-61
2022/10/26 02:09:07;;;;;;;3.97;2.70;;;;;;;7.88;100.00;99009.78;5036218;28;20045;-63
2022/10/26 02:11:40;;;;;;;4.43;2.65;;;;;;;7.75;100.00;98997.06;4979725;28;20464;-60
2022/10/26 02:14:17;;;;;;;2.80;2.15;;;;;;;7.68;100.00;98991.97;5010096;28;20133;-62
2022/10/26 02:16:58;;;;;;;3.40;2.00;;;;;;;7.50;100.00;98963.91;4979703;28;20038;-61
2022/10/26 02:19:32;;;;;;;3.20;2.25;;;;;;;7.65;100.00;99003.00;4981243;28;20096;-61
2022/10/26 02:22:04;;;;;;;5.28;2.42;;;;;;;7.53;100.00;98987.72;4979449;28;20042;-60
2022/10/26 02:24:39;;;;;;;4.22;2.60;;;;;;;7.70;100.00;98995.34;4981641;28;20121;-62
2022/10/26 02:27:10;;;;;;;2.30;1.92;;;;;;;7.83;100.00;98976.59;4978579;28;20034;-61
2022/10/26 02:29:37;;;;;;;5.35;2.20;;;;;;;8.19;100.00;99003.72;4979739;28;20034;-60
2022/10/26 02:32:06;;;;;;;4.13;2.10;;;;;;;8.00;100.00;98986.78;4979506;28;20074;-61
2022/10/26 02:34:34;;;;;;;3.10;2.13;;;;;;;7.96;100.00;98992.75;4980174;28;20049;-61
2022/10/26 02:37:02;;;;;;;3.40;2.45;;;;;;;8.03;100.00;98986.75;4980678;28;20054;-61
2022/10/26 02:39:32;;;;;;;5.07;2.08;;;;;;;8.06;100.00;98994.44;4995307;28;20097;-62
2022/10/26 02:42:02;;;;;;;5.88;2.42;;;;;;;7.99;100.00;98990.16;4980521;28;20056;-62
2022/10/26 02:44:31;;;;;;;2.88;2.20;;;;;;;7.96;100.00;98998.69;4981176;28;20489;-67
2022/10/26 02:46:58;;;;;;;7.25;3.45;;;;;;;7.81;100.00;99002.13;4981070;28;20439;-66
2022/10/26 02:49:24;;;;;;;2.72;1.92;;;;;;;7.76;100.00;98975.78;4979035;28;20040;-66
2022/10/26 02:52:10;;;;;;;4.88;1.73;;;;;;;7.86;100.00;98991.91;4980922;28;20472;-66
2022/10/26 02:54:40;;;;;;;2.00;1.67;;;;;;;7.62;100.00;98984.31;4979957;28;20042;-67
2022/10/26 02:57:14;;;;;;;2.30;2.00;;;;;;;7.71;100.00;99002.16;4980962;28;20050;-65
2022/10/26 02:59:46;;;;;;;2.03;1.85;;;;;;;7.51;100.00;98980.94;4977151;28;20034;-67
2022/10/26 03:02:15;;;;;;;2.10;1.90;;;;;;;7.61;100.00;99003.88;4976360;28;20397;-66
2022/10/26 03:04:41;;;;;;;2.20;1.90;;;;;;;7.55;100.00;99003.88;4980438;28;20049;-67
2022/10/26 03:07:06;;;;;;;4.65;2.47;;;;;;;7.54;100.00;99003.88;4980884;28;20042;-65
2022/10/26 03:09:32;;;;;;;3.42;1.92;;;;;;;7.77;100.00;98997.88;4984456;28;20427;-65
2022/10/26 03:11:58;;;;;;;3.63;1.85;;;;;;;7.92;100.00;98997.00;5012439;28;20049;-64
2022/10/26 03:14:24;;;;;;;3.25;2.33;;;;;;;7.87;100.00;99002.97;5018936;28;20046;-65
2022/10/26 03:16:49;;;;;;;2.17;1.90;;;;;;;7.68;100.00;98997.88;5019763;28;20038;-65
2022/10/26 03:19:15;;;;;;;4.05;2.08;;;;;;;7.63;100.00;98996.22;5018771;28;20099;-65
2022/10/26 03:21:41;;;;;;;2.35;2.00;;;;;;;7.53;100.00;99003.03;5019687;28;20389;-66
2022/10/26 03:24:07;;;;;;;2.50;2.30;;;;;;;7.29;100.00;98987.75;5020855;28;20050;-66
2022/10/26 03:26:33;;;;;;;5.00;3.67;;;;;;;7.19;100.00;98988.59;5017507;28;20040;-64
2022/10/26 03:28:59;;;;;;;2.88;2.30;;;;;;;7.21;100.00;98997.09;5020547;28;20045;-65
2022/10/26 03:31:25;;;;;;;4.88;2.97;;;;;;;7.17;100.00;98988.56;5019171;28;20586;-64
2022/10/26 03:33:50;;;;;;;5.43;2.40;;;;;;;7.37;100.00;99000.50;5019530;28;20041;-65
2022/10/26 03:36:16;;;;;;;3.15;2.70;;;;;;;7.26;100.00;98978.38;5017579;28;20552;-65
2022/10/26 03:38:42;;;;;;;3.40;2.03;;;;;;;7.38;100.00;99000.50;5019798;28;20052;-65
2022/10/26 03:41:08;;;;;;;2.13;1.80;;;;;;;7.34;100.00;98991.16;5021031;28;20038;-64
2022/10/26 03:43:33;;;;;;;3.33;2.10;;;;;;;7.32;100.00;99005.59;5018541;28;20081;-64
2022/10/26 03:45:59;;;;;;;3.50;2.05;;;;;;;7.28;100.00;98999.66;5020410;28;20038;-65
2022/10/26 03:48:24;;;;;;;2.50;2.30;;;;;;;7.25;100.00;98974.16;5018954;28;20118;-65
2022/10/26 03:50:50;;;;;;;3.72;2.10;;;;;;;7.41;100.00;98986.88;5019903;28;20048;-67
2022/10/26 03:53:15;;;;;;;3.15;1.92;;;;;;;7.31;100.00;98979.22;5020764;28;20967;-66
2022/10/26 03:55:44;;;;;;;3.17;2.17;;;;;;;7.25;100.00;98974.16;5018726;28;20568;-66
2022/10/26 03:58:09;;;;;;;4.13;2.33;;;;;;;7.22;100.00;98978.38;5034001;28;20600;-65
2022/10/26 04:00:35;;;;;;;5.20;2.20;;;;;;;7.22;100.00;98984.34;5020820;28;20041;-65
2022/10/26 04:03:00;;;;;;;3.50;2.60;;;;;;;7.22;100.00;98988.56;5023326;28;20042;-65
2022/10/26 04:05:28;;;;;;;4.07;2.07;;;;;;;7.11;100.00;98972.44;5023013;28;20104;-66
2022/10/26 04:07:55;;;;;;;4.87;2.37;;;;;;;7.23;100.00;98993.69;5021685;28;20040;-65
2022/10/26 04:10:22;;;;;;;4.63;2.50;;;;;;;7.19;100.00;98973.28;5022699;28;20049;-65
2022/10/26 04:12:47;;;;;;;2.50;2.25;;;;;;;7.34;100.00;98989.44;5022847;28;20496;-65
2022/10/26 04:15:13;;;;;;;8.13;2.23;;;;;;;7.24;100.00;98963.94;5023593;28;20124;-65
2022/10/26 04:17:39;;;;;;;2.25;1.75;;;;;;;7.27;100.00;98967.34;5022310;28;20041;-65
2022/10/26 04:20:05;;;;;;;5.30;2.42;;;;;;;7.42;100.00;98988.59;5021385;28;20459;-65
2022/10/26 04:22:30;;;;;;;7.00;2.17;;;;;;;7.52;100.00;98993.66;5022751;28;20045;-65
2022/10/26 04:24:56;;;;;;;3.60;2.50;;;;;;;7.38;100.00;98967.34;5022487;28;20068;-65
2022/10/26 04:27:22;;;;;;;5.18;2.05;;;;;;;7.51;100.00;98986.03;5022331;28;20048;-66
2022/10/26 04:29:48;;;;;;;3.67;2.60;;;;;;;7.34;100.00;98963.09;5022493;28;20038;-65
2022/10/26 04:32:13;;;;;;;2.97;2.28;;;;;;;7.45;100.00;98986.88;5022754;28;20128;-65
2022/10/26 04:34:39;;;;;;;2.45;2.25;;;;;;;7.36;100.00;98984.34;5022462;28;20037;-66
2022/10/26 04:37:04;;;;;;;6.47;2.67;;;;;;;7.45;100.00;98996.22;5022446;28;20033;-65
2022/10/26 04:39:30;;;;;;;2.85;2.10;;;;;;;7.32;100.00;98978.38;5021916;28;20412;-65
2022/10/26 04:41:56;;;;;;;3.03;2.70;;;;;;;7.35;100.00;98980.94;5023019;28;20045;-64
2022/10/26 04:44:21;;;;;;;4.95;2.53;;;;;;;7.34;100.00;98965.66;5022747;28;20069;-67
2022/10/26 04:46:47;;;;;;;2.33;2.00;;;;;;;7.47;100.00;98982.63;5022677;28;20039;-66
2022/10/26 04:49:13;;;;;;;4.20;3.17;;;;;;;7.49;100.00;98992.81;5022624;28;20407;-66
2022/10/26 04:51:38;;;;;;;2.78;2.42;;;;;;;7.50;100.00;98994.53;5021210;28;20042;-65
2022/10/26 04:54:04;;;;;;;2.50;2.25;;;;;;;7.40;100.00;98974.97;5022315;28;20650;-65
2022/10/26 04:56:29;;;;;;;2.60;2.40;;;;;;;7.48;100.00;98993.66;5022648;28;20485;-66
2022/10/26 04:58:55;;;;;;;4.35;2.42;;;;;;;7.33;100.00;98964.78;5023147;28;20061;-65
2022/10/26 05:01:21;;;;;;;4.13;3.63;;;;;;;7.48;100.00;98993.66;5023084;28;20098;-65
2022/10/26 05:03:51;;;;;;;7.55;5.53;;;;;;;7.38;100.00;98977.53;5020610;28;20041;-65
2022/10/26 05:06:18;;;;;;;8.20;6.00;;;;;;;7.37;100.00;98997.94;5021409;28;20447;-65
2022/10/26 05:08:44;;;;;;;6.88;5.55;;;;;;;7.35;100.00;98993.69;5022294;28;20025;-65
2022/10/26 05:11:10;;;;;;;13.85;6.32;;;;;;;7.33;100.00;98995.41;5036449;28;20049;-65
2022/10/26 05:13:36;;;;;;;6.68;5.20;;;;;;;7.33;100.00;98994.53;5019701;28;20061;-65
2022/10/26 05:16:01;;;;;;;6.03;4.10;;;;;;;7.30;100.00;98982.63;5021876;28;20030;-65
2022/10/26 05:18:27;;;;;;;4.85;3.55;;;;;;;7.38;100.00;98992.84;5021669;28;20128;-66
2022/10/26 05:20:53;;;;;;;6.82;4.40;;;;;;;7.25;100.00;98970.75;5020929;28;20121;-67
2022/10/26 05:23:18;;;;;;;7.50;5.78;;;;;;;7.43;100.00;98997.91;5021449;28;20064;-66
2022/10/26 05:25:44;;;;;;;8.82;4.65;;;;;;;7.35;100.00;98975.81;5020690;28;20136;-66
2022/10/26 05:28:12;;;;;;;6.32;5.10;;;;;;;7.53;100.00;99003.03;5017651;28;20052;-66
2022/10/26 05:30:42;;;;;;;6.30;4.38;;;;;;;7.62;100.00;99008.13;5021668;28;20152;-66
2022/10/26 05:33:10;;;;;;;5.35;4.05;;;;;;;7.65;100.00;99014.91;5021122;28;20459;-64
2022/10/26 05:35:36;;;;;;;4.85;3.15;;;;;;;7.78;100.00;99019.16;5022047;28;20574;-64
2022/10/26 05:38:16;;;;;;;4.63;2.95;;;;;;;7.71;100.00;98992.81;5021054;28;20053;-65
2022/10/26 05:40:49;;;;;;;3.58;3.03;;;;;;;7.81;100.00;99003.81;5020586;28;20134;-65
2022/10/26 05:43:15;;;;;;;7.85;3.33;;;;;;;7.81;100.00;98997.03;5021188;28;20033;-65
2022/10/26 05:45:41;;;;;;;4.47;3.05;;;;;;;8.01;100.00;99032.72;5021294;28;20065;-65
2022/10/26 05:48:06;;;;;;;6.10;2.95;;;;;;;8.03;100.00;99018.25;5022244;28;20130;-65
2022/10/26 05:50:32;;;;;;;3.28;2.60;;;;;;;8.11;100.00;99028.44;5021272;28;20069;-66
2022/10/26 05:52:58;;;;;;;5.40;2.92;;;;;;;8.14;100.00;99034.41;5020605;28;20049;-65
2022/10/26 05:55:24;;;;;;;3.72;3.42;;;;;;;8.19;100.00;99042.88;5020992;28;20412;-65
2022/10/26 05:57:50;;;;;;;3.55;3.25;;;;;;;8.23;100.00;99039.47;5018446;28;20043;-65
2022/10/26 06:00:19;;;;;;;3.47;2.60;;;;;;;8.24;100.00;99046.28;5018593;28;20649;-65
2022/10/26 06:03:00;;;;;;;5.03;2.63;;;;;;;8.34;100.00;99051.38;5020382;28;20044;-66
2022/10/26 06:05:28;;;;;;;3.90;2.63;;;;;;;8.41;100.00;99050.50;5035782;28;20128;-66
2022/10/26 06:07:54;;;;;;;3.55;3.25;;;;;;;8.49;100.00;99056.44;5021131;28;20041;-66
2022/10/26 06:10:20;;;;;;;4.68;2.60;;;;;;;8.56;100.00;99053.00;5019656;28;20049;-66
2022/10/26 06:12:46;;;;;;;5.40;2.78;;;;;;;8.54;100.00;99021.50;5035898;28;20353;-66
2022/10/26 06:15:18;;;;;;;7.43;2.72;;;;;;;8.78;100.00;99046.94;5015066;28;20053;-66
2022/10/26 06:18:00;;;;;;;5.13;3.60;;;;;;;8.74;100.00;99035.03;5015924;28;20075;-65
2022/10/26 06:20:37;;;;;;;4.03;2.63;;;;;;;8.89;100.00;99068.19;5020589;28;20551;-66
2022/10/26 06:23:17;;;;;;;3.95;3.35;;;;;;;9.01;100.00;99087.72;5018302;28;20045;-67
2022/10/26 06:26:05;;;;;;;4.07;2.50;;;;;;;9.16;100.00;99092.78;5019950;28;20045;-67
2022/10/26 06:28:58;;;;;;;4.57;3.10;;;;;;;9.26;100.00;99093.53;5019092;28;20358;-67
2022/10/26 06:31:23;;;;;;;2.53;2.33;;;;;;;9.23;100.00;99063.72;5020800;28;20124;-67
2022/10/26 06:33:56;;;;;;;4.20;2.80;;;;;;;9.49;100.00;99092.53;5014700;28;20033;-67
2022/10/26 06:36:27;;;;;;;3.67;2.97;;;;;;;9.51;100.00;99070.31;5016308;28;20037;-67
2022/10/26 06:39:06;;;;;;;3.85;2.80;;;;;;;9.52;100.00;99049.00;5020128;28;20851;-68
2022/10/26 06:41:33;;;;;;;4.32;2.47;;;;;;;9.86;100.00;99082.84;5019374;28;20103;-68
2022/10/26 06:44:01;;;;;;;3.38;2.83;;;;;;;9.82;100.00;99053.00;5019331;28;20337;-67
2022/10/26 06:46:42;;;;;;;5.90;4.15;;;;;;;9.92;100.00;99059.75;5018047;28;20041;-67
2022/10/26 06:49:22;;;;;;;3.28;2.97;;;;;;;10.15;100.00;99077.47;5015948;28;20044;-67
2022/10/26 06:52:06;;;;;;;3.28;2.97;;;;;;;10.26;100.00;99070.53;5016962;28;20049;-67
2022/10/26 06:54:46;;;;;;;3.33;2.78;;;;;;;10.16;100.00;99039.88;5018917;28;20068;-69
2022/10/26 06:57:14;;;;;;;4.63;3.60;;;;;;;10.39;100.00;99068.69;5012325;28;20053;-67
2022/10/26 06:59:46;;;;;;;6.10;3.72;;;;;;;10.51;100.00;99086.50;5018790;28;20061;-67
2022/10/26 07:02:13;;;;;;;5.10;4.00;;;;;;;10.55;100.00;99065.06;5019023;28;20111;-67
2022/10/26 07:04:43;;;;;;;4.35;3.95;;;;;;;10.64;100.00;99072.66;5019690;28;20071;-66
2022/10/26 07:07:14;;;;;;;5.18;3.92;;;;;;;10.71;100.00;99079.41;5018655;28;20041;-66
2022/10/26 07:09:40;;;;;;;4.57;3.72;;;;;;;10.68;100.00;99061.50;5018479;28;20573;-66
2022/10/26 07:12:06;;;;;;;5.70;4.25;;;;;;;10.66;100.00;99093.97;5019524;28;20259;-67
2022/10/26 07:14:32;;;;;;;6.75;5.05;;;;;;;10.86;100.00;99075.81;5014150;28;20152;-66
2022/10/26 07:16:57;;;;;;;9.45;5.72;;;;;;;11.00;100.00;99084.16;5016936;28;20136;-64
2022/10/26 07:19:26;;;;;;;5.47;3.97;;;;;;;11.05;100.00;99091.78;5020788;28;20504;-64
2022/10/26 07:21:55;;;;;;;5.18;4.30;;;;;;;11.01;100.00;99067.91;5020364;28;20172;-63
2022/10/26 07:24:22;;;;;;;4.97;4.22;;;;;;;11.11;100.00;99101.97;5016432;28;20037;-65
2022/10/26 07:26:48;;;;;;;5.03;3.90;;;;;;;11.17;100.00;99079.63;5017727;28;20068;-65
2022/10/26 07:29:15;;;;;;;6.07;4.00;;;;;;;11.34;100.00;99097.34;5019151;28;20120;-65
2022/10/26 07:31:40;;;;;;;7.15;4.07;;;;;;;11.54;100.00;99099.66;5018621;28;20147;-65
2022/10/26 07:34:06;;;;;;;4.25;3.88;;;;;;;11.56;100.00;99106.44;5016602;28;20671;-64
2022/10/26 07:36:32;;;;;;;6.60;4.88;;;;;;;11.77;100.00;99105.28;5014514;28;20058;-64
2022/10/26 07:38:58;;;;;;;5.05;4.13;;;;;;;11.70;100.00;99099.38;5014398;28;20098;-64
2022/10/26 07:41:23;;;;;;;4.63;4.13;;;;;;;11.73;100.00;99104.50;5011957;28;20535;-65
2022/10/26 07:43:49;;;;;;;6.82;4.10;;;;;;;11.76;100.00;99113.84;5016973;28;20084;-65
2022/10/26 07:46:16;;;;;;;6.38;4.15;;;;;;;11.84;100.00;99122.28;5017033;28;20513;-64
2022/10/26 07:48:41;;;;;;;21.98;5.43;;;;;;;11.93;100.00;99103.28;5016879;28;20561;-64
2022/10/26 07:51:08;;;;;;;7.07;4.97;;;;;;;11.88;100.00;99099.09;5016300;28;20120;-63
2022/10/26 07:53:33;;;;;;;6.57;5.00;;;;;;;11.93;100.00;99103.28;5016023;28;20747;-65
2022/10/26 07:55:59;;;;;;;7.85;5.13;;;;;;;11.90;100.00;99097.34;5016256;28;20052;-65
2022/10/26 07:58:26;;;;;;;6.82;5.95;;;;;;;11.88;100.00;99111.13;5016653;28;20049;-64
2022/10/26 08:00:52;;;;;;;8.57;6.05;;;;;;;11.84;100.00;99088.88;5016760;28;20068;-64
2022/10/26 08:03:18;;;;;;;11.60;6.80;;;;;;;11.98;100.00;99115.22;5017875;28;20124;-64
2022/10/26 08:05:50;;;;;;;10.85;7.35;;;;;;;12.05;100.00;99116.78;5016047;28;20045;-67
2022/10/26 08:08:19;;;;;;;13.68;8.48;;;;;;;12.00;100.00;99112.63;5020117;28;20037;-65
2022/10/26 08:10:45;;;;;;;9.40;8.50;;;;;;;11.99;100.00;99111.78;5015202;28;20429;-64
2022/10/26 08:13:11;;;;;;;13.80;11.13;;;;;;;12.00;100.00;99122.91;5016888;28;20056;-64
2022/10/26 08:15:37;;;;;;;14.13;10.52;;;;;;;11.97;100.00;99105.78;5017943;28;20061;-64
2022/10/26 08:18:03;;;;;;;12.50;10.00;;;;;;;12.20;100.00;99123.41;5017481;28;20140;-65
2022/10/26 08:20:29;;;;;;;11.27;10.07;;;;;;;12.23;100.00;99115.63;5017452;28;20290;-64
2022/10/26 08:22:58;;;;;;;14.18;10.90;;;;;;;12.27;100.00;99117.25;5017368;28;20053;-64
2022/10/26 08:25:24;;;;;;;15.48;12.38;;;;;;;12.18;100.00;99120.84;5018220;28;20048;-65
2022/10/26 08:27:50;;;;;;;16.02;11.57;;;;;;;12.30;100.00;99122.38;5017706;28;20377;-65
2022/10/26 08:30:16;;;;;;;16.33;11.32;;;;;;;12.22;100.00;99113.94;5017689;28;20056;-65
2022/10/26 08:32:41;;;;;;;16.63;11.43;;;;;;;12.31;100.00;99124.03;5016461;28;20405;-65
2022/10/26 08:35:08;;;;;;;17.70;11.35;;;;;;;12.21;100.00;99113.09;5017069;28;20076;-64
2022/10/26 08:37:34;;;;;;;13.13;10.05;;;;;;;12.33;100.00;99127.44;5016466;28;20488;-65
2022/10/26 08:39:59;;;;;;;15.50;11.32;;;;;;;12.31;100.00;99124.91;5014868;28;20075;-65
2022/10/26 08:42:39;;;;;;;16.73;10.90;;;;;;;12.23;100.00;99113.91;5017377;28;20186;-65
2022/10/26 08:45:21;;;;;;;17.92;11.68;;;;;;;12.20;100.00;99113.13;5017289;28;20087;-64
2022/10/26 08:47:52;;;;;;;20.17;11.23;;;;;;;12.44;100.00;99142.66;5018407;28;20148;-65
2022/10/26 08:50:26;;;;;;;16.30;12.98;;;;;;;12.24;100.00;99138.75;5021255;28;20296;-65
2022/10/26 08:53:03;;;;;;;14.37;12.30;;;;;;;12.31;100.00;99139.47;5020701;28;20050;-62
2022/10/26 08:55:40;;;;;;;21.15;13.15;;;;;;;12.26;100.00;99138.72;5019409;28;20292;-66
2022/10/26 08:58:14;;;;;;;12.52;11.07;;;;;;;12.43;100.00;99149.56;5016048;28;20029;-65
2022/10/26 09:00:40;;;;;;;14.38;12.27;;;;;;;12.36;100.00;99129.97;5019572;28;20493;-65
2022/10/26 09:03:13;;;;;;;16.35;11.77;;;;;;;12.51;100.00;99132.25;5017286;28;20056;-66
2022/10/26 09:06:05;;;;;;;14.90;12.15;;;;;;;12.64;100.00;99138.03;5034736;28;20041;-64
2022/10/26 09:08:49;;;;;;;17.45;12.30;;;;;;;12.66;100.00;99155.13;5021063;28;20107;-64
2022/10/26 09:11:14;;;;;;;16.17;12.57;;;;;;;12.65;100.00;99152.56;5021308;28;20424;-64
2022/10/26 09:14:01;;;;;;;14.90;12.02;;;;;;;12.55;100.00;99151.91;5020795;28;20396;-63
2022/10/26 09:16:46;;;;;;;19.50;12.55;;;;;;;12.56;100.00;99140.72;5017546;28;20258;-65
2022/10/26 09:19:30;;;;;;;14.60;12.93;;;;;;;12.73;100.00;99158.44;5016994;28;20049;-62
2022/10/26 09:22:05;;;;;;;17.00;12.10;;;;;;;12.80;100.00;99160.84;5017878;28;20045;-64
2022/10/26 09:24:32;;;;;;;16.25;12.75;;;;;;;12.66;100.00;99160.25;5016642;28;20088;-64
2022/10/26 09:27:13;;;;;;;17.88;13.77;;;;;;;12.61;100.00;99153.50;5017759;28;20145;-64
2022/10/26 09:29:41;;;;;;;18.52;14.07;;;;;;;12.86;100.00;99171.91;5017684;28;20091;-62
2022/10/26 09:32:17;;;;;;;20.13;13.70;;;;;;;12.72;100.00;99157.56;5018768;28;20184;-62
2022/10/26 09:34:56;;;;;;;20.83;14.07;;;;;;;12.74;100.00;99180.69;5018971;28;20048;-62
2022/10/26 09:37:27;;;;;;;21.17;16.50;;;;;;;12.58;100.00;99174.13;5020233;28;20445;-65
2022/10/26 09:39:52;;;;;;;21.58;14.98;;;;;;;12.67;100.00;99190.25;5020486;28;20045;-63
2022/10/26 09:42:23;;;;;;;21.23;14.60;;;;;;;12.61;100.00;99174.91;5019963;28;20049;-64
2022/10/26 09:45:02;;;;;;;19.98;15.52;;;;;;;12.71;100.00;99194.47;5019431;28;20037;-63
2022/10/26 09:47:36;;;;;;;18.98;14.75;;;;;;;12.55;100.00;99182.78;5019850;28;20037;-64
2022/10/26 09:50:26;;;;;;;20.10;15.02;;;;;;;12.72;100.00;99195.31;5019754;28;20100;-62
2022/10/26 09:52:52;;;;;;;20.75;15.80;;;;;;;12.68;100.00;99181.66;5007316;28;20456;-62
2022/10/26 09:55:20;;;;;;;26.10;17.75;;;;;;;12.77;100.00;99172.94;5015605;28;20052;-61
2022/10/26 09:57:49;;;;;;;25.48;15.75;;;;;;;12.94;100.00;99168.31;5034184;28;20515;-61
2022/10/26 10:00:18;;;;;;;28.25;17.52;;;;;;;13.27;100.00;99184.81;5016402;28;20037;-62
2022/10/26 10:02:47;;;;;;;26.60;16.55;;;;;;;13.28;100.00;99189.09;5016671;28;20171;-63
2022/10/26 10:05:33;;;;;;;24.83;16.70;;;;;;;13.37;100.00;99188.88;5014134;28;20053;-61
2022/10/26 10:08:16;;;;;;;20.38;15.65;;;;;;;13.42;100.00;99197.34;5031410;28;20558;-63
2022/10/26 10:10:56;;;;;;;23.02;14.82;;;;;;;13.56;100.00;99187.59;5015277;28;20045;-62
2022/10/26 10:13:24;;;;;;;24.80;15.25;;;;;;;13.67;100.00;99182.19;5016833;28;20041;-61
2022/10/26 10:15:52;;;;;;;23.90;16.05;;;;;;;13.81;100.00;99169.00;5021279;28;20041;-63
2022/10/26 10:18:22;;;;;;;23.52;16.33;;;;;;;14.01;100.00;99184.84;5021028;28;20360;-61
2022/10/26 10:20:57;;;;;;;20.70;16.10;;;;;;;14.14;100.00;99188.81;5019617;28;20041;-61
2022/10/26 10:23:45;;;;;;;21.13;15.20;;;;;;;14.26;100.00;99188.53;5021095;28;20052;-61
2022/10/26 10:26:11;;;;;;;23.52;16.05;;;;;;;14.19;100.00;99185.25;5020028;28;20044;-61
2022/10/26 10:28:39;;;;;;;21.58;14.70;;;;;;;14.13;100.00;99169.09;5021698;28;20401;-59
2022/10/26 10:31:19;;;;;;;24.05;14.98;;;;;;;14.10;100.00;99169.16;5021145;28;20049;-60
2022/10/26 10:33:45;;;;;;;25.25;16.60;;;;;;;13.77;100.00;99164.81;5020155;28;20365;-60
2022/10/26 10:36:24;;;;;;;23.95;15.88;;;;;;;14.00;100.00;99180.59;5019614;28;20049;-60
2022/10/26 10:38:52;;;;;;;21.15;15.35;;;;;;;13.83;100.00;99151.78;5018654;28;20041;-61
2022/10/26 10:41:28;;;;;;;24.85;14.20;;;;;;;14.11;100.00;99173.44;5019674;28;20128;-61
2022/10/26 10:44:07;;;;;;;22.25;15.23;;;;;;;14.12;100.00;99164.81;5020249;28;20050;-62
2022/10/26 10:46:34;;;;;;;29.13;16.92;;;;;;;14.12;100.00;99170.84;5019558;28;20063;-61
2022/10/26 10:49:03;;;;;;;22.02;14.60;;;;;;;13.92;100.00;99146.44;5015981;28;20069;-59
2022/10/26 10:51:35;;;;;;;25.73;16.27;;;;;;;13.88;100.00;99170.56;5016171;28;20126;-59
2022/10/26 10:54:03;;;;;;;26.92;16.02;;;;;;;13.87;100.00;99169.72;5019422;28;20052;-61
2022/10/26 10:56:28;;;;;;;19.80;14.23;;;;;;;13.70;100.00;99182.16;5016579;28;20037;-60
2022/10/26 10:59:27;;;;;;;22.50;16.42;;;;;;;13.75;100.00;99175.13;5017019;28;20749;-65
2022/10/26 11:02:05;;;;;;;25.88;16.02;;;;;;;13.71;100.00;99168.38;5010612;28;20060;-60
2022/10/26 11:04:40;;;;;;;20.67;15.52;;;;;;;13.75;100.00;99154.53;5019225;28;20037;-60
2022/10/26 11:07:08;;;;;;;;;;;;;;;13.84;100.00;99174.09;5017002;28;20493;-62
2022/10/26 11:09:39;;;;;;;25.73;15.40;;;;;;;13.96;100.00;99172.06;5018948;28;20349;-60
2022/10/26 11:12:16;;;;;;;22.45;16.92;;;;;;;13.92;100.00;99170.44;5033890;28;20038;-61
2022/10/26 11:14:53;;;;;;;30.88;16.60;;;;;;;13.93;100.00;99171.28;5019195;28;20034;-61
2022/10/26 11:17:26;;;;;;;26.20;16.75;;;;;;;14.00;100.00;99162.56;5018562;28;20870;-60
2022/10/26 11:20:01;;;;;;;27.17;16.63;;;;;;;14.09;100.00;99170.88;5018898;28;20152;-60
2022/10/26 11:22:38;;;;;;;;;;;;;;;14.26;100.00;99173.03;5019795;28;20041;-60
2022/10/26 11:25:16;;;;;;;24.42;15.88;;;;;;;14.51;100.00;99163.81;5019330;28;19975;-60
2022/10/26 11:27:52;;;;;;;22.17;15.57;;;;;;;14.74;100.00;99170.09;5016407;28;20562;-60
2022/10/26 11:30:20;;;;;;;33.95;26.95;;;;;;;14.46;100.00;99152.78;5017721;28;20037;-61
2022/10/26 11:32:59;;;;;;;25.52;18.15;;;;;;;14.56;100.00;99159.38;5020459;28;20033;-60
2022/10/26 11:35:27;;;;;;;22.40;15.05;;;;;;;14.86;100.00;99175.78;5019525;28;20029;-60
2022/10/26 11:38:03;;;;;;;25.10;15.85;;;;;;;14.91;100.00;99183.41;5018300;28;20697;-61